sensor_id;sensor_type;location;lat;lon;timestamp;P1;durP1;ratioP1;P2;durP2;ratioP2
8285;SDS011;4181;43.416;24.598;2024-02-23T00:01:38;4.63;;;3.03;;
8285;SDS011;4181;43.416;24.598;2024-02-23T00:04:04;3.23;;;2.77;;
8285;SDS011;4181;43.416;24.598;2024-02-23T00:06:31;6.10;;;2.87;;
8285;SDS011;4181;43.416;24.598;2024-02-23T00:08:57;7.43;;;3.00;;
8285;SDS011;4181;43.416;24.598;2024-02-23T00:11:23;2.77;;;2.20;;
8285;SDS011;4181;43.416;24.598;2024-02-23T00:13:49;6.37;;;2.53;;
8285;SDS011;4181;43.416;24.598;2024-02-23T00:16:14;4.67;;;2.83;;
8285;SDS011;4181;43.416;24.598;2024-02-23T00:18:43;4.43;;;2.63;;
8285;SDS011;4181;43.416;24.598;2024-02-23T00:21:08;2.70;;;2.10;;
8285;SDS011;4181;43.416;24.598;2024-02-23T00:23:34;4.30;;;2.30;;
8285;SDS011;4181;43.416;24.598;2024-02-23T00:26:00;2.83;;;1.90;;
8285;SDS011;4181;43.416;24.598;2024-02-23T00:28:25;4.40;;;2.83;;
8285;SDS011;4181;43.416;24.598;2024-02-23T00:30:51;3.57;;;2.20;;
8285;SDS011;4181;43.416;24.598;2024-02-23T00:33:18;4.30;;;2.57;;
8285;SDS011;4181;43.416;24.598;2024-02-23T00:35:43;3.00;;;2.37;;
8285;SDS011;4181;43.416;24.598;2024-02-23T00:38:09;3.97;;;2.70;;
8285;SDS011;4181;43.416;24.598;2024-02-23T00:40:34;2.77;;;2.50;;
8285;SDS011;4181;43.416;24.598;2024-02-23T00:43:00;2.70;;;2.50;;
8285;SDS011;4181;43.416;24.598;2024-02-23T00:45:26;3.13;;;2.57;;
8285;SDS011;4181;43.416;24.598;2024-02-23T00:47:51;2.40;;;2.20;;
8285;SDS011;4181;43.416;24.598;2024-02-23T00:50:17;9.20;;;5.07;;
8285;SDS011;4181;43.416;24.598;2024-02-23T00:52:42;6.27;;;4.13;;
8285;SDS011;4181;43.416;24.598;2024-02-23T00:55:08;4.07;;;2.50;;
8285;SDS011;4181;43.416;24.598;2024-02-23T00:57:34;2.43;;;2.23;;
8285;SDS011;4181;43.416;24.598;2024-02-23T01:00:01;3.60;;;2.43;;
8285;SDS011;4181;43.416;24.598;2024-02-23T01:02:30;4.67;;;2.43;;
8285;SDS011;4181;43.416;24.598;2024-02-23T01:04:56;2.50;;;2.30;;
8285;SDS011;4181;43.416;24.598;2024-02-23T01:07:23;4.97;;;2.70;;
8285;SDS011;4181;43.416;24.598;2024-02-23T01:09:49;4.33;;;2.63;;
8285;SDS011;4181;43.416;24.598;2024-02-23T01:12:17;2.40;;;2.20;;
8285;SDS011;4181;43.416;24.598;2024-02-23T01:14:43;4.27;;;2.70;;
8285;SDS011;4181;43.416;24.598;2024-02-23T01:17:08;4.17;;;2.80;;
8285;SDS011;4181;43.416;24.598;2024-02-23T01:19:34;2.80;;;2.20;;
8285;SDS011;4181;43.416;24.598;2024-02-23T01:21:59;3.93;;;2.67;;
8285;SDS011;4181;43.416;24.598;2024-02-23T01:24:28;3.83;;;3.07;;
8285;SDS011;4181;43.416;24.598;2024-02-23T01:26:54;3.57;;;2.30;;
8285;SDS011;4181;43.416;24.598;2024-02-23T01:29:20;2.67;;;2.40;;
8285;SDS011;4181;43.416;24.598;2024-02-23T01:31:47;2.80;;;2.43;;
8285;SDS011;4181;43.416;24.598;2024-02-23T01:34:13;3.20;;;2.90;;
8285;SDS011;4181;43.416;24.598;2024-02-23T01:36:38;2.60;;;2.03;;
8285;SDS011;4181;43.416;24.598;2024-02-23T01:39:04;2.63;;;2.17;;
8285;SDS011;4181;43.416;24.598;2024-02-23T01:41:29;2.93;;;2.40;;
8285;SDS011;4181;43.416;24.598;2024-02-23T01:43:55;2.90;;;2.27;;
8285;SDS011;4181;43.416;24.598;2024-02-23T01:46:20;3.10;;;2.27;;
8285;SDS011;4181;43.416;24.598;2024-02-23T01:48:46;3.27;;;2.47;;
8285;SDS011;4181;43.416;24.598;2024-02-23T01:51:12;4.20;;;2.37;;
8285;SDS011;4181;43.416;24.598;2024-02-23T01:53:38;6.03;;;2.20;;
8285;SDS011;4181;43.416;24.598;2024-02-23T01:56:04;3.13;;;2.30;;
8285;SDS011;4181;43.416;24.598;2024-02-23T01:58:30;4.03;;;2.53;;
8285;SDS011;4181;43.416;24.598;2024-02-23T02:00:56;3.77;;;2.10;;
8285;SDS011;4181;43.416;24.598;2024-02-23T02:03:21;3.20;;;2.67;;
8285;SDS011;4181;43.416;24.598;2024-02-23T02:05:47;3.17;;;2.30;;
8285;SDS011;4181;43.416;24.598;2024-02-23T02:08:14;6.30;;;2.70;;
8285;SDS011;4181;43.416;24.598;2024-02-23T02:10:40;3.63;;;2.63;;
8285;SDS011;4181;43.416;24.598;2024-02-23T02:13:07;2.83;;;2.33;;
8285;SDS011;4181;43.416;24.598;2024-02-23T02:15:33;2.93;;;2.27;;
8285;SDS011;4181;43.416;24.598;2024-02-23T02:17:58;3.23;;;2.90;;
8285;SDS011;4181;43.416;24.598;2024-02-23T02:20:24;6.17;;;2.40;;
8285;SDS011;4181;43.416;24.598;2024-02-23T02:22:53;4.60;;;2.87;;
8285;SDS011;4181;43.416;24.598;2024-02-23T02:25:19;3.97;;;2.40;;
8285;SDS011;4181;43.416;24.598;2024-02-23T02:27:44;3.67;;;2.63;;
8285;SDS011;4181;43.416;24.598;2024-02-23T02:30:13;3.40;;;2.80;;
8285;SDS011;4181;43.416;24.598;2024-02-23T02:32:38;4.70;;;2.70;;
8285;SDS011;4181;43.416;24.598;2024-02-23T02:35:04;3.30;;;2.60;;
8285;SDS011;4181;43.416;24.598;2024-02-23T02:37:30;4.63;;;2.53;;
8285;SDS011;4181;43.416;24.598;2024-02-23T02:39:56;3.73;;;2.30;;
8285;SDS011;4181;43.416;24.598;2024-02-23T02:42:21;4.63;;;2.40;;
8285;SDS011;4181;43.416;24.598;2024-02-23T02:44:47;4.47;;;2.50;;
8285;SDS011;4181;43.416;24.598;2024-02-23T02:47:12;2.40;;;2.20;;
8285;SDS011;4181;43.416;24.598;2024-02-23T02:49:39;5.37;;;3.00;;
8285;SDS011;4181;43.416;24.598;2024-02-23T02:52:05;5.47;;;2.40;;
8285;SDS011;4181;43.416;24.598;2024-02-23T02:54:31;3.53;;;2.33;;
8285;SDS011;4181;43.416;24.598;2024-02-23T02:56:56;3.13;;;2.37;;
8285;SDS011;4181;43.416;24.598;2024-02-23T02:59:22;3.30;;;2.70;;
8285;SDS011;4181;43.416;24.598;2024-02-23T03:01:48;4.20;;;2.50;;
8285;SDS011;4181;43.416;24.598;2024-02-23T03:04:13;4.07;;;2.30;;
8285;SDS011;4181;43.416;24.598;2024-02-23T03:06:39;2.67;;;2.27;;
8285;SDS011;4181;43.416;24.598;2024-02-23T03:09:04;5.10;;;2.60;;
8285;SDS011;4181;43.416;24.598;2024-02-23T03:11:30;2.87;;;2.50;;
8285;SDS011;4181;43.416;24.598;2024-02-23T03:13:55;3.30;;;2.33;;
8285;SDS011;4181;43.416;24.598;2024-02-23T03:16:21;3.33;;;2.53;;
8285;SDS011;4181;43.416;24.598;2024-02-23T03:18:48;3.17;;;2.70;;
8285;SDS011;4181;43.416;24.598;2024-02-23T03:21:14;7.10;;;3.53;;
8285;SDS011;4181;43.416;24.598;2024-02-23T03:23:40;5.60;;;3.50;;
8285;SDS011;4181;43.416;24.598;2024-02-23T03:26:09;4.33;;;2.80;;
8285;SDS011;4181;43.416;24.598;2024-02-23T03:28:34;2.73;;;2.03;;
8285;SDS011;4181;43.416;24.598;2024-02-23T03:31:00;3.30;;;2.50;;
8285;SDS011;4181;43.416;24.598;2024-02-23T03:33:26;3.10;;;2.80;;
8285;SDS011;4181;43.416;24.598;2024-02-23T03:35:51;3.70;;;3.30;;
8285;SDS011;4181;43.416;24.598;2024-02-23T03:38:17;5.43;;;3.77;;
8285;SDS011;4181;43.416;24.598;2024-02-23T03:40:42;5.40;;;3.17;;
8285;SDS011;4181;43.416;24.598;2024-02-23T03:43:08;3.77;;;3.17;;
8285;SDS011;4181;43.416;24.598;2024-02-23T03:45:33;4.57;;;3.13;;
8285;SDS011;4181;43.416;24.598;2024-02-23T03:47:59;4.20;;;3.33;;
8285;SDS011;4181;43.416;24.598;2024-02-23T03:50:26;5.67;;;2.93;;
8285;SDS011;4181;43.416;24.598;2024-02-23T03:52:51;3.87;;;2.67;;
8285;SDS011;4181;43.416;24.598;2024-02-23T03:55:16;2.33;;;1.93;;
8285;SDS011;4181;43.416;24.598;2024-02-23T03:57:42;4.80;;;2.47;;
8285;SDS011;4181;43.416;24.598;2024-02-23T04:00:07;4.97;;;2.93;;
8285;SDS011;4181;43.416;24.598;2024-02-23T04:02:34;2.63;;;2.07;;
8285;SDS011;4181;43.416;24.598;2024-02-23T04:04:59;2.70;;;2.50;;
8285;SDS011;4181;43.416;24.598;2024-02-23T04:07:25;3.53;;;2.37;;
8285;SDS011;4181;43.416;24.598;2024-02-23T04:09:50;2.83;;;2.63;;
8285;SDS011;4181;43.416;24.598;2024-02-23T04:12:19;12.40;;;3.13;;
8285;SDS011;4181;43.416;24.598;2024-02-23T04:14:45;14.43;;;7.20;;
8285;SDS011;4181;43.416;24.598;2024-02-23T04:17:11;11.03;;;5.40;;
8285;SDS011;4181;43.416;24.598;2024-02-23T04:19:40;5.13;;;3.63;;
8285;SDS011;4181;43.416;24.598;2024-02-23T04:22:06;4.87;;;3.47;;
8285;SDS011;4181;43.416;24.598;2024-02-23T04:24:38;6.10;;;3.07;;
8285;SDS011;4181;43.416;24.598;2024-02-23T04:27:05;3.73;;;3.00;;
8285;SDS011;4181;43.416;24.598;2024-02-23T04:29:32;4.17;;;3.03;;
8285;SDS011;4181;43.416;24.598;2024-02-23T04:31:59;2.63;;;2.40;;
8285;SDS011;4181;43.416;24.598;2024-02-23T04:34:25;2.50;;;2.30;;
8285;SDS011;4181;43.416;24.598;2024-02-23T04:36:51;2.67;;;2.43;;
8285;SDS011;4181;43.416;24.598;2024-02-23T04:39:16;4.13;;;2.83;;
8285;SDS011;4181;43.416;24.598;2024-02-23T04:41:42;2.30;;;1.90;;
8285;SDS011;4181;43.416;24.598;2024-02-23T04:44:07;3.57;;;2.77;;
8285;SDS011;4181;43.416;24.598;2024-02-23T04:46:33;3.50;;;2.73;;
8285;SDS011;4181;43.416;24.598;2024-02-23T04:48:59;3.17;;;2.77;;
8285;SDS011;4181;43.416;24.598;2024-02-23T04:51:25;4.13;;;3.03;;
8285;SDS011;4181;43.416;24.598;2024-02-23T04:53:50;4.50;;;2.50;;
8285;SDS011;4181;43.416;24.598;2024-02-23T04:56:16;7.03;;;3.63;;
8285;SDS011;4181;43.416;24.598;2024-02-23T04:58:41;4.97;;;3.60;;
8285;SDS011;4181;43.416;24.598;2024-02-23T05:01:08;5.50;;;3.10;;
8285;SDS011;4181;43.416;24.598;2024-02-23T05:03:34;3.30;;;2.80;;
8285;SDS011;4181;43.416;24.598;2024-02-23T05:05:59;3.33;;;2.53;;
8285;SDS011;4181;43.416;24.598;2024-02-23T05:08:25;4.23;;;2.87;;
8285;SDS011;4181;43.416;24.598;2024-02-23T05:10:52;6.47;;;2.40;;
8285;SDS011;4181;43.416;24.598;2024-02-23T05:13:18;4.27;;;2.90;;
8285;SDS011;4181;43.416;24.598;2024-02-23T05:15:43;6.93;;;3.60;;
8285;SDS011;4181;43.416;24.598;2024-02-23T05:18:09;5.93;;;3.00;;
8285;SDS011;4181;43.416;24.598;2024-02-23T05:20:34;5.53;;;2.97;;
8285;SDS011;4181;43.416;24.598;2024-02-23T05:23:00;3.90;;;2.50;;
8285;SDS011;4181;43.416;24.598;2024-02-23T05:25:25;6.70;;;3.27;;
8285;SDS011;4181;43.416;24.598;2024-02-23T05:27:52;3.37;;;2.53;;
8285;SDS011;4181;43.416;24.598;2024-02-23T05:30:17;4.10;;;2.77;;
8285;SDS011;4181;43.416;24.598;2024-02-23T05:32:42;15.33;;;3.43;;
8285;SDS011;4181;43.416;24.598;2024-02-23T05:35:08;5.33;;;3.63;;
8285;SDS011;4181;43.416;24.598;2024-02-23T05:37:34;2.50;;;2.30;;
8285;SDS011;4181;43.416;24.598;2024-02-23T05:40:00;5.93;;;3.33;;
8285;SDS011;4181;43.416;24.598;2024-02-23T05:42:31;6.50;;;3.97;;
8285;SDS011;4181;43.416;24.598;2024-02-23T05:44:57;4.03;;;3.60;;
8285;SDS011;4181;43.416;24.598;2024-02-23T05:47:23;5.60;;;4.10;;
8285;SDS011;4181;43.416;24.598;2024-02-23T05:49:48;6.57;;;4.20;;
8285;SDS011;4181;43.416;24.598;2024-02-23T05:52:15;5.40;;;4.23;;
8285;SDS011;4181;43.416;24.598;2024-02-23T05:54:41;11.87;;;4.50;;
8285;SDS011;4181;43.416;24.598;2024-02-23T05:57:06;6.03;;;4.00;;
8285;SDS011;4181;43.416;24.598;2024-02-23T05:59:31;6.07;;;4.60;;
8285;SDS011;4181;43.416;24.598;2024-02-23T06:01:57;9.90;;;6.30;;
8285;SDS011;4181;43.416;24.598;2024-02-23T06:04:23;6.47;;;4.93;;
8285;SDS011;4181;43.416;24.598;2024-02-23T06:06:49;12.60;;;6.90;;
8285;SDS011;4181;43.416;24.598;2024-02-23T06:09:14;16.77;;;11.90;;
8285;SDS011;4181;43.416;24.598;2024-02-23T06:11:40;14.70;;;8.43;;
8285;SDS011;4181;43.416;24.598;2024-02-23T06:14:07;17.80;;;8.10;;
8285;SDS011;4181;43.416;24.598;2024-02-23T06:16:32;13.80;;;7.77;;
8285;SDS011;4181;43.416;24.598;2024-02-23T06:18:58;13.27;;;6.97;;
8285;SDS011;4181;43.416;24.598;2024-02-23T06:21:23;14.20;;;8.70;;
8285;SDS011;4181;43.416;24.598;2024-02-23T06:23:49;13.70;;;7.73;;
8285;SDS011;4181;43.416;24.598;2024-02-23T06:26:14;8.23;;;5.87;;
8285;SDS011;4181;43.416;24.598;2024-02-23T06:28:40;17.90;;;8.10;;
8285;SDS011;4181;43.416;24.598;2024-02-23T06:31:09;15.13;;;6.77;;
8285;SDS011;4181;43.416;24.598;2024-02-23T06:33:35;11.97;;;6.73;;
8285;SDS011;4181;43.416;24.598;2024-02-23T06:36:00;13.73;;;7.77;;
8285;SDS011;4181;43.416;24.598;2024-02-23T06:38:26;11.37;;;7.03;;
8285;SDS011;4181;43.416;24.598;2024-02-23T06:40:52;13.63;;;8.53;;
8285;SDS011;4181;43.416;24.598;2024-02-23T06:43:18;12.23;;;8.00;;
8285;SDS011;4181;43.416;24.598;2024-02-23T06:45:43;10.97;;;5.70;;
8285;SDS011;4181;43.416;24.598;2024-02-23T06:48:09;13.90;;;6.77;;
8285;SDS011;4181;43.416;24.598;2024-02-23T06:50:35;11.00;;;7.00;;
8285;SDS011;4181;43.416;24.598;2024-02-23T06:53:02;12.30;;;7.60;;
8285;SDS011;4181;43.416;24.598;2024-02-23T06:55:27;19.60;;;8.13;;
8285;SDS011;4181;43.416;24.598;2024-02-23T06:57:53;13.43;;;6.83;;
8285;SDS011;4181;43.416;24.598;2024-02-23T07:00:20;18.00;;;6.83;;
8285;SDS011;4181;43.416;24.598;2024-02-23T07:02:46;10.47;;;6.33;;
8285;SDS011;4181;43.416;24.598;2024-02-23T07:05:12;8.53;;;5.33;;
8285;SDS011;4181;43.416;24.598;2024-02-23T07:07:38;6.13;;;4.70;;
8285;SDS011;4181;43.416;24.598;2024-02-23T07:10:05;5.07;;;3.60;;
8285;SDS011;4181;43.416;24.598;2024-02-23T07:12:31;6.60;;;3.43;;
8285;SDS011;4181;43.416;24.598;2024-02-23T07:14:56;7.57;;;3.27;;
8285;SDS011;4181;43.416;24.598;2024-02-23T07:17:22;4.50;;;2.53;;
8285;SDS011;4181;43.416;24.598;2024-02-23T07:19:48;5.37;;;3.10;;
8285;SDS011;4181;43.416;24.598;2024-02-23T07:22:15;3.37;;;2.80;;
8285;SDS011;4181;43.416;24.598;2024-02-23T07:24:43;5.33;;;3.33;;
8285;SDS011;4181;43.416;24.598;2024-02-23T07:27:09;4.03;;;3.13;;
8285;SDS011;4181;43.416;24.598;2024-02-23T07:29:34;5.13;;;3.20;;
8285;SDS011;4181;43.416;24.598;2024-02-23T07:32:00;3.67;;;3.10;;
8285;SDS011;4181;43.416;24.598;2024-02-23T07:34:26;4.83;;;3.10;;
8285;SDS011;4181;43.416;24.598;2024-02-23T07:36:51;4.03;;;2.70;;
8285;SDS011;4181;43.416;24.598;2024-02-23T07:39:17;4.10;;;2.83;;
8285;SDS011;4181;43.416;24.598;2024-02-23T07:41:43;3.30;;;2.80;;
8285;SDS011;4181;43.416;24.598;2024-02-23T07:44:08;5.13;;;3.30;;
8285;SDS011;4181;43.416;24.598;2024-02-23T07:46:34;3.47;;;2.70;;
8285;SDS011;4181;43.416;24.598;2024-02-23T07:48:59;5.27;;;3.27;;
8285;SDS011;4181;43.416;24.598;2024-02-23T07:51:25;4.17;;;2.57;;
8285;SDS011;4181;43.416;24.598;2024-02-23T07:53:50;4.87;;;2.90;;
8285;SDS011;4181;43.416;24.598;2024-02-23T07:56:16;6.23;;;2.77;;
8285;SDS011;4181;43.416;24.598;2024-02-23T07:58:42;3.57;;;2.93;;
8285;SDS011;4181;43.416;24.598;2024-02-23T08:01:07;4.93;;;2.73;;
8285;SDS011;4181;43.416;24.598;2024-02-23T08:03:33;4.07;;;2.87;;
8285;SDS011;4181;43.416;24.598;2024-02-23T08:05:58;4.07;;;3.03;;
8285;SDS011;4181;43.416;24.598;2024-02-23T08:08:23;3.20;;;2.77;;
8285;SDS011;4181;43.416;24.598;2024-02-23T08:10:50;3.83;;;2.67;;
8285;SDS011;4181;43.416;24.598;2024-02-23T08:13:16;2.77;;;2.53;;
8285;SDS011;4181;43.416;24.598;2024-02-23T08:15:43;3.43;;;2.60;;
8285;SDS011;4181;43.416;24.598;2024-02-23T08:18:08;3.97;;;2.97;;
8285;SDS011;4181;43.416;24.598;2024-02-23T08:20:35;4.37;;;2.90;;
8285;SDS011;4181;43.416;24.598;2024-02-23T08:23:01;3.30;;;2.53;;
8285;SDS011;4181;43.416;24.598;2024-02-23T08:25:27;2.63;;;2.37;;
8285;SDS011;4181;43.416;24.598;2024-02-23T08:27:56;2.80;;;2.50;;
8285;SDS011;4181;43.416;24.598;2024-02-23T08:30:22;2.73;;;2.50;;
8285;SDS011;4181;43.416;24.598;2024-02-23T08:32:47;3.53;;;2.40;;
8285;SDS011;4181;43.416;24.598;2024-02-23T08:35:13;5.73;;;3.60;;
8285;SDS011;4181;43.416;24.598;2024-02-23T08:37:40;3.20;;;2.30;;
8285;SDS011;4181;43.416;24.598;2024-02-23T08:40:07;5.87;;;2.90;;
8285;SDS011;4181;43.416;24.598;2024-02-23T08:42:36;4.90;;;2.47;;
8285;SDS011;4181;43.416;24.598;2024-02-23T08:45:04;3.40;;;2.80;;
8285;SDS011;4181;43.416;24.598;2024-02-23T08:47:30;2.57;;;2.07;;
8285;SDS011;4181;43.416;24.598;2024-02-23T08:50:00;3.17;;;2.63;;
8285;SDS011;4181;43.416;24.598;2024-02-23T08:52:26;3.57;;;2.60;;
8285;SDS011;4181;43.416;24.598;2024-02-23T08:54:55;4.10;;;2.30;;
8285;SDS011;4181;43.416;24.598;2024-02-23T08:57:20;3.13;;;2.80;;
8285;SDS011;4181;43.416;24.598;2024-02-23T08:59:47;11.37;;;3.33;;
8285;SDS011;4181;43.416;24.598;2024-02-23T09:02:14;3.70;;;2.23;;
8285;SDS011;4181;43.416;24.598;2024-02-23T09:04:39;3.73;;;2.13;;
8285;SDS011;4181;43.416;24.598;2024-02-23T09:07:05;4.47;;;2.13;;
8285;SDS011;4181;43.416;24.598;2024-02-23T09:09:33;3.07;;;2.50;;
8285;SDS011;4181;43.416;24.598;2024-02-23T09:12:02;2.87;;;2.53;;
8285;SDS011;4181;43.416;24.598;2024-02-23T09:14:27;3.03;;;2.10;;
8285;SDS011;4181;43.416;24.598;2024-02-23T09:16:53;4.40;;;2.50;;
8285;SDS011;4181;43.416;24.598;2024-02-23T09:19:21;3.43;;;2.40;;
8285;SDS011;4181;43.416;24.598;2024-02-23T09:21:47;3.23;;;2.37;;
8285;SDS011;4181;43.416;24.598;2024-02-23T09:24:12;2.77;;;2.20;;
8285;SDS011;4181;43.416;24.598;2024-02-23T09:26:38;6.73;;;2.20;;
8285;SDS011;4181;43.416;24.598;2024-02-23T09:29:04;2.70;;;1.90;;
8285;SDS011;4181;43.416;24.598;2024-02-23T09:31:30;3.63;;;2.50;;
8285;SDS011;4181;43.416;24.598;2024-02-23T09:33:56;5.67;;;3.07;;
8285;SDS011;4181;43.416;24.598;2024-02-23T09:36:22;4.97;;;2.77;;
8285;SDS011;4181;43.416;24.598;2024-02-23T09:38:48;5.17;;;2.67;;
8285;SDS011;4181;43.416;24.598;2024-02-23T09:41:23;2.20;;;1.87;;
8285;SDS011;4181;43.416;24.598;2024-02-23T09:43:49;4.43;;;2.93;;
8285;SDS011;4181;43.416;24.598;2024-02-23T09:46:16;2.60;;;1.90;;
8285;SDS011;4181;43.416;24.598;2024-02-23T09:48:47;8.47;;;3.70;;
8285;SDS011;4181;43.416;24.598;2024-02-23T09:51:13;3.20;;;1.97;;
8285;SDS011;4181;43.416;24.598;2024-02-23T09:53:40;3.13;;;2.23;;
8285;SDS011;4181;43.416;24.598;2024-02-23T09:56:07;6.67;;;3.00;;
8285;SDS011;4181;43.416;24.598;2024-02-23T09:58:35;11.97;;;6.17;;
8285;SDS011;4181;43.416;24.598;2024-02-23T10:01:02;7.97;;;3.63;;
8285;SDS011;4181;43.416;24.598;2024-02-23T10:03:29;3.43;;;2.60;;
8285;SDS011;4181;43.416;24.598;2024-02-23T10:05:57;3.00;;;2.57;;
8285;SDS011;4181;43.416;24.598;2024-02-23T10:08:24;4.90;;;2.73;;
8285;SDS011;4181;43.416;24.598;2024-02-23T10:10:50;3.47;;;2.20;;
8285;SDS011;4181;43.416;24.598;2024-02-23T10:13:19;3.10;;;2.23;;
8285;SDS011;4181;43.416;24.598;2024-02-23T10:15:46;2.00;;;1.80;;
8285;SDS011;4181;43.416;24.598;2024-02-23T10:18:12;2.30;;;2.10;;
8285;SDS011;4181;43.416;24.598;2024-02-23T10:20:38;5.37;;;3.10;;
8285;SDS011;4181;43.416;24.598;2024-02-23T10:23:04;7.30;;;3.90;;
8285;SDS011;4181;43.416;24.598;2024-02-23T10:25:30;8.70;;;4.97;;
8285;SDS011;4181;43.416;24.598;2024-02-23T10:27:58;3.60;;;2.60;;
8285;SDS011;4181;43.416;24.598;2024-02-23T10:30:26;14.20;;;5.57;;
8285;SDS011;4181;43.416;24.598;2024-02-23T10:32:52;7.43;;;3.90;;
8285;SDS011;4181;43.416;24.598;2024-02-23T10:35:21;7.43;;;4.00;;
8285;SDS011;4181;43.416;24.598;2024-02-23T10:37:48;6.50;;;4.10;;
8285;SDS011;4181;43.416;24.598;2024-02-23T10:40:18;6.97;;;3.50;;
8285;SDS011;4181;43.416;24.598;2024-02-23T10:42:46;4.43;;;3.07;;
8285;SDS011;4181;43.416;24.598;2024-02-23T10:45:16;6.83;;;3.87;;
8285;SDS011;4181;43.416;24.598;2024-02-23T10:47:44;7.43;;;3.83;;
8285;SDS011;4181;43.416;24.598;2024-02-23T10:50:10;2.80;;;2.10;;
8285;SDS011;4181;43.416;24.598;2024-02-23T10:52:40;2.40;;;1.90;;
8285;SDS011;4181;43.416;24.598;2024-02-23T10:55:08;2.57;;;1.90;;
8285;SDS011;4181;43.416;24.598;2024-02-23T10:57:37;2.83;;;2.00;;
8285;SDS011;4181;43.416;24.598;2024-02-23T11:00:04;3.77;;;2.80;;
8285;SDS011;4181;43.416;24.598;2024-02-23T11:02:33;2.13;;;1.80;;
8285;SDS011;4181;43.416;24.598;2024-02-23T11:05:03;2.60;;;1.83;;
8285;SDS011;4181;43.416;24.598;2024-02-23T11:07:37;3.07;;;2.00;;
8285;SDS011;4181;43.416;24.598;2024-02-23T11:10:04;4.33;;;2.27;;
8285;SDS011;4181;43.416;24.598;2024-02-23T11:12:30;2.90;;;2.20;;
8285;SDS011;4181;43.416;24.598;2024-02-23T11:14:59;2.73;;;2.13;;
8285;SDS011;4181;43.416;24.598;2024-02-23T11:17:32;3.97;;;1.90;;
8285;SDS011;4181;43.416;24.598;2024-02-23T11:20:03;2.73;;;1.90;;
8285;SDS011;4181;43.416;24.598;2024-02-23T11:22:33;2.27;;;2.03;;
8285;SDS011;4181;43.416;24.598;2024-02-23T11:25:03;2.53;;;2.00;;
8285;SDS011;4181;43.416;24.598;2024-02-23T11:27:31;8.07;;;4.03;;
8285;SDS011;4181;43.416;24.598;2024-02-23T11:30:02;7.30;;;2.77;;
8285;SDS011;4181;43.416;24.598;2024-02-23T11:32:38;4.63;;;3.67;;
8285;SDS011;4181;43.416;24.598;2024-02-23T11:35:08;4.13;;;2.70;;
8285;SDS011;4181;43.416;24.598;2024-02-23T11:37:49;7.53;;;3.77;;
8285;SDS011;4181;43.416;24.598;2024-02-23T11:40:28;1.77;;;1.67;;
8285;SDS011;4181;43.416;24.598;2024-02-23T11:42:55;18.40;;;4.50;;
8285;SDS011;4181;43.416;24.598;2024-02-23T11:45:21;3.37;;;2.20;;
8285;SDS011;4181;43.416;24.598;2024-02-23T11:47:48;2.83;;;2.40;;
8285;SDS011;4181;43.416;24.598;2024-02-23T11:50:14;3.70;;;1.90;;
8285;SDS011;4181;43.416;24.598;2024-02-23T11:52:44;5.20;;;3.23;;
8285;SDS011;4181;43.416;24.598;2024-02-23T11:55:10;2.17;;;1.53;;
8285;SDS011;4181;43.416;24.598;2024-02-23T11:57:36;3.37;;;1.87;;
8285;SDS011;4181;43.416;24.598;2024-02-23T12:00:04;2.27;;;1.73;;
8285;SDS011;4181;43.416;24.598;2024-02-23T12:02:35;2.33;;;1.60;;
8285;SDS011;4181;43.416;24.598;2024-02-23T12:05:01;2.00;;;1.70;;
8285;SDS011;4181;43.416;24.598;2024-02-23T12:07:27;3.03;;;1.93;;
8285;SDS011;4181;43.416;24.598;2024-02-23T12:09:55;7.23;;;2.90;;
8285;SDS011;4181;43.416;24.598;2024-02-23T12:12:21;8.67;;;4.23;;
8285;SDS011;4181;43.416;24.598;2024-02-23T12:14:47;3.43;;;2.00;;
8285;SDS011;4181;43.416;24.598;2024-02-23T12:17:13;9.63;;;3.60;;
8285;SDS011;4181;43.416;24.598;2024-02-23T12:19:39;9.90;;;5.53;;
8285;SDS011;4181;43.416;24.598;2024-02-23T12:22:05;7.90;;;3.50;;
8285;SDS011;4181;43.416;24.598;2024-02-23T12:24:30;5.17;;;3.40;;
8285;SDS011;4181;43.416;24.598;2024-02-23T12:26:56;4.20;;;2.83;;
8285;SDS011;4181;43.416;24.598;2024-02-23T12:29:22;2.43;;;1.87;;
8285;SDS011;4181;43.416;24.598;2024-02-23T12:31:48;4.73;;;2.30;;
8285;SDS011;4181;43.416;24.598;2024-02-23T12:34:13;5.67;;;3.10;;
8285;SDS011;4181;43.416;24.598;2024-02-23T12:36:39;3.33;;;2.30;;
8285;SDS011;4181;43.416;24.598;2024-02-23T12:39:05;3.20;;;2.17;;
8285;SDS011;4181;43.416;24.598;2024-02-23T12:41:30;4.07;;;2.20;;
8285;SDS011;4181;43.416;24.598;2024-02-23T12:43:56;2.03;;;1.60;;
8285;SDS011;4181;43.416;24.598;2024-02-23T12:46:22;3.13;;;1.90;;
8285;SDS011;4181;43.416;24.598;2024-02-23T12:48:48;2.90;;;1.93;;
8285;SDS011;4181;43.416;24.598;2024-02-23T12:51:14;2.20;;;1.97;;
8285;SDS011;4181;43.416;24.598;2024-02-23T12:53:41;3.80;;;2.23;;
8285;SDS011;4181;43.416;24.598;2024-02-23T12:56:07;2.40;;;1.97;;
8285;SDS011;4181;43.416;24.598;2024-02-23T12:58:37;2.30;;;2.00;;
8285;SDS011;4181;43.416;24.598;2024-02-23T13:01:04;2.03;;;1.90;;
8285;SDS011;4181;43.416;24.598;2024-02-23T13:03:31;2.63;;;1.60;;
8285;SDS011;4181;43.416;24.598;2024-02-23T13:05:58;2.47;;;2.23;;
8285;SDS011;4181;43.416;24.598;2024-02-23T13:08:24;2.33;;;1.83;;
8285;SDS011;4181;43.416;24.598;2024-02-23T13:10:50;2.40;;;1.60;;
8285;SDS011;4181;43.416;24.598;2024-02-23T13:13:17;3.10;;;2.20;;
8285;SDS011;4181;43.416;24.598;2024-02-23T13:15:44;2.10;;;1.90;;
8285;SDS011;4181;43.416;24.598;2024-02-23T13:18:10;2.40;;;1.87;;
8285;SDS011;4181;43.416;24.598;2024-02-23T13:20:36;2.27;;;2.07;;
8285;SDS011;4181;43.416;24.598;2024-02-23T13:23:02;2.77;;;2.23;;
8285;SDS011;4181;43.416;24.598;2024-02-23T13:25:28;1.97;;;1.80;;
8285;SDS011;4181;43.416;24.598;2024-02-23T13:27:53;3.87;;;2.30;;
8285;SDS011;4181;43.416;24.598;2024-02-23T13:30:19;3.73;;;2.10;;
8285;SDS011;4181;43.416;24.598;2024-02-23T13:32:45;4.17;;;2.60;;
8285;SDS011;4181;43.416;24.598;2024-02-23T13:35:10;3.40;;;2.40;;
8285;SDS011;4181;43.416;24.598;2024-02-23T13:37:36;4.07;;;2.17;;
8285;SDS011;4181;43.416;24.598;2024-02-23T13:40:01;6.13;;;3.33;;
8285;SDS011;4181;43.416;24.598;2024-02-23T13:42:28;3.50;;;2.40;;
8285;SDS011;4181;43.416;24.598;2024-02-23T13:44:54;3.80;;;2.47;;
8285;SDS011;4181;43.416;24.598;2024-02-23T13:47:19;5.03;;;3.87;;
8285;SDS011;4181;43.416;24.598;2024-02-23T13:49:45;5.10;;;2.50;;
8285;SDS011;4181;43.416;24.598;2024-02-23T13:52:10;3.13;;;2.63;;
8285;SDS011;4181;43.416;24.598;2024-02-23T13:54:36;3.13;;;2.40;;
8285;SDS011;4181;43.416;24.598;2024-02-23T13:57:01;2.80;;;2.43;;
8285;SDS011;4181;43.416;24.598;2024-02-23T13:59:27;3.50;;;2.50;;
8285;SDS011;4181;43.416;24.598;2024-02-23T14:01:52;10.17;;;5.17;;
8285;SDS011;4181;43.416;24.598;2024-02-23T14:04:18;3.50;;;1.93;;
8285;SDS011;4181;43.416;24.598;2024-02-23T14:06:43;1.93;;;1.73;;
8285;SDS011;4181;43.416;24.598;2024-02-23T14:09:09;6.90;;;2.53;;
8285;SDS011;4181;43.416;24.598;2024-02-23T14:11:35;4.20;;;2.20;;
8285;SDS011;4181;43.416;24.598;2024-02-23T14:14:00;2.90;;;2.20;;
8285;SDS011;4181;43.416;24.598;2024-02-23T14:16:27;2.40;;;1.90;;
8285;SDS011;4181;43.416;24.598;2024-02-23T14:18:53;2.27;;;1.97;;
8285;SDS011;4181;43.416;24.598;2024-02-23T14:21:19;1.87;;;1.70;;
8285;SDS011;4181;43.416;24.598;2024-02-23T14:23:46;3.17;;;2.20;;
8285;SDS011;4181;43.416;24.598;2024-02-23T14:26:11;1.73;;;1.60;;
8285;SDS011;4181;43.416;24.598;2024-02-23T14:28:37;4.67;;;2.50;;
8285;SDS011;4181;43.416;24.598;2024-02-23T14:31:03;5.20;;;2.40;;
8285;SDS011;4181;43.416;24.598;2024-02-23T14:33:29;5.40;;;3.30;;
8285;SDS011;4181;43.416;24.598;2024-02-23T14:35:54;4.90;;;3.03;;
8285;SDS011;4181;43.416;24.598;2024-02-23T14:38:20;2.40;;;1.87;;
8285;SDS011;4181;43.416;24.598;2024-02-23T14:40:47;2.30;;;1.70;;
8285;SDS011;4181;43.416;24.598;2024-02-23T14:43:12;2.73;;;1.80;;
8285;SDS011;4181;43.416;24.598;2024-02-23T14:45:38;2.13;;;1.87;;
8285;SDS011;4181;43.416;24.598;2024-02-23T14:48:04;2.93;;;2.27;;
8285;SDS011;4181;43.416;24.598;2024-02-23T14:50:30;10.57;;;6.30;;
8285;SDS011;4181;43.416;24.598;2024-02-23T14:52:55;6.33;;;5.67;;
8285;SDS011;4181;43.416;24.598;2024-02-23T14:55:21;9.07;;;7.70;;